Time;durP1;ratioP1;P1;durP2;ratioP2;P2;SDS_P1;SDS_P2;PMS_P1;PMS_P2;Temp;Humidity;BMP_temperature;BMP_pressure;BME280_temperature;BME280_humidity;BME280_pressure;Samples;Min_cycle;Max_cycle;Signal;HPM_P1;HPM_P2
2023/11/15 00:01:35;;;;;;;0.20;0.20;;;;;;;15.54;100.00;75497.44;4878440;29;20029;-88
2023/11/15 00:04:03;;;;;;;0.20;0.20;;;;;;;15.65;100.00;75516.22;4863065;29;20032;-89
2023/11/15 00:06:28;;;;;;;0.20;0.20;;;;;;;15.53;100.00;75499.03;4863279;29;20041;-88
2023/11/15 00:08:54;;;;;;;0.20;0.20;;;;;;;15.57;100.00;75501.63;4864080;29;20033;-88
2023/11/15 00:11:19;;;;;;;0.20;0.20;;;;;;;15.60;100.00;75510.78;4876215;29;20029;-88
2023/11/15 00:13:50;;;;;;;0.25;0.25;;;;;;;15.56;100.00;75499.84;4900900;29;20509;-88
2023/11/15 00:16:17;;;;;;;0.20;0.20;;;;;;;15.44;100.00;75488.81;4916912;29;20032;-89
2023/11/15 00:18:42;;;;;;;0.20;0.20;;;;;;;15.39;100.00;75482.84;4916777;29;20123;-88
2023/11/15 00:21:08;;;;;;;0.20;0.20;;;;;;;15.49;100.00;75492.03;4900835;29;20073;-88
2023/11/15 00:23:35;;;;;;;0.20;0.20;;;;;;;15.46;100.00;75488.44;4915491;29;20020;-88
2023/11/15 00:26:00;;;;;;;0.20;0.20;;;;;;;15.46;100.00;75491.84;4899797;29;20039;-88
2023/11/15 00:28:26;;;;;;;0.20;0.20;;;;;;;15.54;100.00;75500.81;4899808;29;20405;-88
2023/11/15 00:30:52;;;;;;;0.20;0.20;;;;;;;15.41;100.00;75488.63;4915886;29;20024;-88
2023/11/15 00:33:18;;;;;;;0.20;0.20;;;;;;;15.59;100.00;75506.81;4899311;29;20028;-89
2023/11/15 00:35:44;;;;;;;0.20;0.20;;;;;;;15.50;100.00;75504.41;4915687;29;20477;-89
2023/11/15 00:38:11;;;;;;;0.20;0.20;;;;;;;15.45;100.00;75490.03;4899795;29;20020;-89
2023/11/15 00:40:37;;;;;;;0.20;0.20;;;;;;;15.56;100.00;75503.22;4899119;29;20469;-88
2023/11/15 00:43:04;;;;;;;0.20;0.20;;;;;;;15.44;100.00;75491.63;4880806;29;20036;-88
2023/11/15 00:45:30;;;;;;;0.20;0.20;;;;;;;15.50;100.00;75498.81;4880655;29;20084;-88
2023/11/15 00:47:56;;;;;;;0.20;0.20;;;;;;;15.44;100.00;75492.22;4880628;29;20120;-88
2023/11/15 00:50:22;;;;;;;0.20;0.20;;;;;;;15.39;100.00;75480.06;4880464;29;20458;-88
2023/11/15 00:52:47;;;;;;;0.20;0.20;;;;;;;15.50;100.00;75501.63;4880771;29;20021;-89
2023/11/15 00:55:13;;;;;;;0.20;0.20;;;;;;;15.42;100.00;75489.81;4880915;29;20024;-88
2023/11/15 00:57:39;;;;;;;0.20;0.20;;;;;;;15.53;100.00;75499.03;4880461;29;20459;-89
2023/11/15 01:00:21;;;;;;;0.20;0.20;;;;;;;15.54;100.00;75494.66;4880535;29;20017;-89
2023/11/15 01:02:48;;;;;;;0.20;0.20;;;;;;;15.41;100.00;75482.47;4880605;29;20013;-89
2023/11/15 01:05:14;;;;;;;0.25;0.25;;;;;;;15.57;100.00;75506.63;4881105;29;20533;-87
2023/11/15 01:14:24;;;;;;;0.20;0.20;;;;;;;15.67;100.00;75515.84;4918355;29;20051;-88
2023/11/15 01:16:49;;;;;;;0.20;0.20;;;;;;;15.80;100.00;75534.19;4899594;29;20032;-89
2023/11/15 01:19:15;;;;;;;0.20;0.20;;;;;;;15.77;100.00;75530.63;4899262;29;20116;-88
2023/11/15 01:33:37;;;;;;;0.20;0.20;;;;;;;15.68;100.00;75520.41;4993574;23;20056;-85
2023/11/15 01:59:03;;;;;;;0.20;0.20;;;;;;;15.90;100.00;75542.81;5098499;23;20056;-84
2023/11/15 02:01:31;;;;;;;0.20;0.20;;;;;;;15.83;100.00;75537.22;4899514;29;20024;-88
2023/11/15 02:03:56;;;;;;;0.20;0.20;;;;;;;15.86;100.00;75535.81;4914010;29;20024;-88
2023/11/15 02:06:27;;;;;;;0.20;0.20;;;;;;;15.70;100.00;75520.03;4913885;29;20036;-88
2023/11/15 02:08:53;;;;;;;0.20;0.20;;;;;;;15.70;100.00;75522.81;4914784;29;20036;-88
2023/11/15 02:11:18;;;;;;;0.20;0.20;;;;;;;15.70;100.00;75517.22;4913702;29;20115;-88
2023/11/15 02:13:44;;;;;;;0.30;0.30;;;;;;;15.68;100.00;75517.63;4914879;29;20036;-88
2023/11/15 02:16:10;;;;;;;0.20;0.20;;;;;;;15.80;100.00;75533.59;4915082;29;20032;-88
2023/11/15 02:18:36;;;;;;;0.20;0.20;;;;;;;15.68;100.00;75520.41;4914931;29;20032;-88
2023/11/15 02:21:01;;;;;;;0.20;0.20;;;;;;;15.56;100.00;75505.41;4898004;29;20032;-88
2023/11/15 02:23:28;;;;;;;0.20;0.20;;;;;;;15.61;100.00;75512.00;4897811;29;20051;-88
2023/11/15 02:25:54;;;;;;;0.20;0.20;;;;;;;15.71;100.00;75523.41;4898142;29;20039;-88
2023/11/15 02:28:20;;;;;;;0.20;0.20;;;;;;;15.55;100.00;75504.81;4898077;29;20028;-88
2023/11/15 02:30:46;;;;;;;0.20;0.20;;;;;;;15.63;100.00;75513.81;4898198;29;20035;-88
2023/11/15 02:33:12;;;;;;;0.20;0.20;;;;;;;15.48;100.00;75490.84;4897842;29;20032;-88
2023/11/15 02:35:38;;;;;;;0.20;0.20;;;;;;;15.48;100.00;75496.41;4898005;29;20040;-88
2023/11/15 02:38:03;;;;;;;0.20;0.20;;;;;;;15.55;100.00;75504.19;4897733;29;20033;-88
2023/11/15 02:40:29;;;;;;;0.20;0.20;;;;;;;15.40;100.00;75481.25;4897670;29;20055;-88
2023/11/15 02:42:54;;;;;;;0.20;0.20;;;;;;;15.58;100.00;75502.84;4897699;29;20069;-88
2023/11/15 02:45:20;;;;;;;0.20;0.20;;;;;;;15.56;100.00;75500.44;4897720;29;20038;-88
2023/11/15 02:47:45;;;;;;;0.20;0.20;;;;;;;15.73;100.00;75525.22;4897640;29;20035;-88
2023/11/15 02:50:11;;;;;;;0.20;0.20;;;;;;;15.87;100.00;75542.00;4897856;29;20036;-87
2023/11/15 02:52:36;;;;;;;0.20;0.20;;;;;;;15.76;100.00;75528.81;4897599;29;20032;-88
2023/11/15 02:55:03;;;;;;;0.20;0.20;;;;;;;15.93;100.00;75549.22;4899080;29;20048;-88
2023/11/15 02:57:29;;;;;;;0.20;0.20;;;;;;;16.01;100.00;75553.22;4917031;29;20135;-88
2023/11/15 02:59:54;;;;;;;0.20;0.20;;;;;;;16.08;100.00;75567.16;4911026;29;20152;-88
2023/11/15 03:02:20;;;;;;;0.20;0.20;;;;;;;16.09;100.00;75565.00;4882589;29;20024;-87
2023/11/15 03:04:45;;;;;;;0.20;0.20;;;;;;;16.20;100.00;75576.00;4882472;29;20092;-88
2023/11/15 03:07:12;;;;;;;0.20;0.20;;;;;;;16.18;100.00;75581.97;4899151;29;20124;-88
2023/11/15 03:09:37;;;;;;;0.20;0.20;;;;;;;16.14;100.00;75568.81;4882140;29;20021;-88
2023/11/15 03:12:03;;;;;;;0.20;0.20;;;;;;;16.21;100.00;75577.19;4894189;29;20119;-88
2023/11/15 03:14:29;;;;;;;0.20;0.20;;;;;;;16.31;100.00;75593.56;4900969;29;20305;-88
2023/11/15 03:16:54;;;;;;;0.20;0.20;;;;;;;16.11;100.00;75570.78;4901064;29;20671;-87
2023/11/15 03:19:20;;;;;;;0.20;0.20;;;;;;;16.21;100.00;75582.19;4917718;29;20474;-88
2023/11/15 03:21:46;;;;;;;0.20;0.20;;;;;;;16.15;100.00;75572.78;4900836;29;20032;-88
2023/11/15 03:24:11;;;;;;;0.20;0.20;;;;;;;16.06;100.00;75570.34;4917611;29;20028;-88
2023/11/15 03:26:36;;;;;;;0.20;0.20;;;;;;;16.07;100.00;75560.41;4899165;29;20032;-88
2023/11/15 03:29:02;;;;;;;0.20;0.20;;;;;;;16.15;100.00;75574.97;4880799;29;20489;-88
2023/11/15 03:31:29;;;;;;;0.20;0.20;;;;;;;15.90;100.00;75545.59;4881895;29;20417;-88
2023/11/15 03:33:55;;;;;;;0.20;0.20;;;;;;;15.89;100.00;75538.81;4881915;29;20025;-88
2023/11/15 03:36:20;;;;;;;0.20;0.20;;;;;;;15.96;100.00;75547.22;4898703;29;20032;-88
2023/11/15 03:38:46;;;;;;;0.20;0.20;;;;;;;15.89;100.00;75536.03;4881645;29;20040;-88
2023/11/15 03:41:11;;;;;;;0.20;0.20;;;;;;;15.97;100.00;75554.59;4887143;29;20134;-88
2023/11/15 03:43:40;;;;;;;0.20;0.20;;;;;;;15.99;100.00;75556.41;4900502;29;20028;-88
2023/11/15 03:46:06;;;;;;;0.20;0.20;;;;;;;15.78;100.00;75531.22;4918021;29;20061;-87
2023/11/15 03:48:32;;;;;;;0.20;0.20;;;;;;;15.75;100.00;75522.03;4900149;29;20028;-88
2023/11/15 03:50:58;;;;;;;0.20;0.20;;;;;;;15.73;100.00;75523.03;4900275;29;20097;-88
2023/11/15 03:53:23;;;;;;;0.20;0.20;;;;;;;15.75;100.00;75522.63;4900157;29;20369;-88
2023/11/15 03:55:50;;;;;;;0.20;0.20;;;;;;;15.73;100.00;75522.44;4900271;29;20433;-88
2023/11/15 03:58:15;;;;;;;0.20;0.20;;;;;;;15.77;100.00;75530.63;4899859;29;20519;-88
2023/11/15 04:00:42;;;;;;;0.20;0.20;;;;;;;15.69;100.00;75523.81;4900284;29;20119;-88
2023/11/15 04:03:07;;;;;;;0.20;0.20;;;;;;;15.68;100.00;75517.03;4900215;29;20268;-88
2023/11/15 04:05:33;;;;;;;0.20;0.20;;;;;;;15.76;100.00;75523.22;4899747;29;20131;-88
2023/11/15 04:07:58;;;;;;;0.20;0.20;;;;;;;15.66;100.00;75517.44;4899787;29;20488;-88
2023/11/15 04:10:24;;;;;;;0.20;0.20;;;;;;;15.81;100.00;75540.97;4900005;29;20028;-88
2023/11/15 04:12:54;;;;;;;0.20;0.20;;;;;;;15.83;100.00;75531.63;4899816;29;20035;-88
2023/11/15 04:15:21;;;;;;;0.20;0.20;;;;;;;15.74;100.00;75526.41;4899817;29;20092;-87
2023/11/15 04:17:46;;;;;;;0.20;0.20;;;;;;;15.60;100.00;75505.22;4899675;29;20051;-88
2023/11/15 04:20:12;;;;;;;0.20;0.20;;;;;;;15.80;100.00;75528.03;4899595;29;20122;-88
2023/11/15 04:22:38;;;;;;;0.20;0.20;;;;;;;15.76;100.00;75523.22;4915602;29;20035;-88
2023/11/15 04:25:04;;;;;;;0.20;0.20;;;;;;;15.68;100.00;75514.84;4899818;29;20536;-88
2023/11/15 04:27:30;;;;;;;0.20;0.20;;;;;;;15.66;100.00;75518.03;4899683;29;20028;-88
2023/11/15 04:29:57;;;;;;;0.20;0.20;;;;;;;15.68;100.00;75520.41;4899836;29;20549;-88
2023/11/15 04:32:23;;;;;;;0.20;0.20;;;;;;;15.65;100.00;75511.25;4899961;29;20087;-88
2023/11/15 04:34:49;;;;;;;0.20;0.20;;;;;;;15.72;100.00;75524.63;4899854;29;20021;-88
2023/11/15 04:37:16;;;;;;;0.20;0.20;;;;;;;15.80;100.00;75533.59;4899418;29;20082;-88
2023/11/15 04:39:42;;;;;;;0.20;0.20;;;;;;;15.68;100.00;75512.06;4899187;29;20101;-88
2023/11/15 04:42:07;;;;;;;0.20;0.20;;;;;;;15.62;100.00;75512.59;4899536;29;20137;-88
2023/11/15 04:44:33;;;;;;;0.20;0.20;;;;;;;15.66;100.00;75523.59;4899598;29;20039;-88
2023/11/15 04:46:58;;;;;;;0.20;0.20;;;;;;;15.80;100.00;75528.03;4899268;29;20508;-88
2023/11/15 04:49:24;;;;;;;0.20;0.20;;;;;;;15.69;100.00;75518.81;4899299;29;20028;-88
2023/11/15 04:51:49;;;;;;;0.20;0.20;;;;;;;15.73;100.00;75525.22;4899705;29;20039;-88
2023/11/15 04:54:15;;;;;;;0.20;0.20;;;;;;;15.73;100.00;75525.81;4899486;29;20032;-88
2023/11/15 04:56:40;;;;;;;0.20;0.20;;;;;;;15.65;100.00;75510.63;4899353;29;20027;-89
2023/11/15 04:59:05;;;;;;;0.20;0.20;;;;;;;15.53;100.00;75496.25;4898884;29;20154;-88
2023/11/15 05:01:31;;;;;;;0.20;0.20;;;;;;;15.62;100.00;75513.22;4899184;29;20028;-88
2023/11/15 05:03:56;;;;;;;0.20;0.20;;;;;;;15.64;100.00;75515.63;4899149;29;20035;-88
2023/11/15 05:06:22;;;;;;;0.20;0.20;;;;;;;15.72;100.00;75521.84;4896589;29;20200;-88
2023/11/15 05:08:47;;;;;;;0.20;0.20;;;;;;;15.77;100.00;75527.22;4880607;29;20101;-88
2023/11/15 05:11:12;;;;;;;0.20;0.20;;;;;;;15.75;100.00;75527.59;4886116;29;20032;-88
2023/11/15 05:13:38;;;;;;;0.20;0.20;;;;;;;15.66;100.00;75515.25;4914756;29;20028;-87
2023/11/15 05:16:05;;;;;;;0.20;0.20;;;;;;;15.80;100.00;75534.19;4899077;29;20586;-88
2023/11/15 05:18:30;;;;;;;0.20;0.20;;;;;;;15.73;100.00;75519.66;4898184;29;20024;-88
2023/11/15 05:20:56;;;;;;;0.20;0.20;;;;;;;15.92;100.00;75545.19;4899037;29;20118;-88
2023/11/15 05:23:21;;;;;;;0.20;0.20;;;;;;;15.84;100.00;75532.84;4898723;29;20039;-89
2023/11/15 05:25:47;;;;;;;0.20;0.20;;;;;;;15.83;100.00;75537.22;4898828;29;20079;-88
2023/11/15 05:28:12;;;;;;;0.20;0.20;;;;;;;15.86;100.00;75535.22;4898646;29;20028;-88
2023/11/15 05:30:39;;;;;;;0.20;0.20;;;;;;;15.91;100.00;75546.78;4898505;29;20474;-87
2023/11/15 05:33:04;;;;;;;0.20;0.20;;;;;;;15.94;100.00;75547.59;4898465;29;20056;-87
2023/11/15 05:35:30;;;;;;;0.20;0.20;;;;;;;15.96;100.00;75545.03;4898067;29;20063;-88
2023/11/15 05:37:56;;;;;;;0.20;0.20;;;;;;;16.09;100.00;75568.38;4878737;29;20114;-87
2023/11/15 05:40:22;;;;;;;0.20;0.20;;;;;;;16.15;100.00;75572.78;4879564;29;20116;-86
2023/11/15 05:42:47;;;;;;;0.20;0.20;;;;;;;16.11;100.00;75564.59;4914281;29;20037;-88
2023/11/15 05:45:13;;;;;;;0.20;0.20;;;;;;;16.23;100.00;75578.97;4898177;29;20032;-88
2023/11/15 05:47:39;;;;;;;0.20;0.20;;;;;;;16.18;100.00;75573.59;4915151;29;20543;-88
2023/11/15 05:50:09;;;;;;;0.20;0.20;;;;;;;16.28;100.00;75589.97;4898212;29;20045;-88
2023/11/15 05:52:37;;;;;;;0.20;0.20;;;;;;;16.29;100.00;75588.97;4913859;29;20025;-88
2023/11/15 05:55:07;;;;;;;0.20;0.20;;;;;;;16.06;100.00;75564.78;4914950;29;20032;-87
2023/11/15 05:57:33;;;;;;;0.20;0.20;;;;;;;16.13;100.00;75573.16;4897741;29;20078;-88
2023/11/15 05:59:59;;;;;;;0.20;0.20;;;;;;;16.06;100.00;75561.41;4897955;29;20036;-88
2023/11/15 06:02:24;;;;;;;0.20;0.20;;;;;;;16.26;100.00;75582.00;4898173;29;20056;-88
2023/11/15 06:04:52;;;;;;;0.20;0.20;;;;;;;16.50;100.00;75613.56;4898064;29;20427;-87
2023/11/15 06:07:18;;;;;;;0.20;0.20;;;;;;;16.92;100.00;75659.97;4897652;29;20126;-87
2023/11/15 06:09:45;;;;;;;0.20;0.20;;;;;;;17.29;100.00;75703.78;4897815;29;20063;-87
2023/11/15 06:12:11;;;;;;;0.20;0.20;;;;;;;17.08;100.00;75684.75;4897940;29;20035;-87
2023/11/15 06:14:36;;;;;;;0.20;0.20;;;;;;;17.59;100.00;75739.19;4897664;29;20024;-87
2023/11/15 06:17:02;;;;;;;0.20;0.20;;;;;;;18.39;100.00;75835.66;4897650;29;20035;-86
2023/11/15 06:19:27;;;;;;;0.20;0.20;;;;;;;18.28;100.00;75826.44;4897887;29;20036;-87
2023/11/15 06:21:52;;;;;;;0.20;0.20;;;;;;;18.10;100.00;75799.22;4897777;29;20035;-87
2023/11/15 06:24:18;;;;;;;0.20;0.20;;;;;;;18.17;100.00;75807.03;4897508;29;20032;-86
2023/11/15 06:26:44;;;;;;;0.20;0.20;;;;;;;17.92;100.00;75778.22;4897707;29;20036;-86
2023/11/15 06:29:11;;;;;;;0.20;0.20;;;;;;;17.92;100.00;75777.63;4899236;29;20092;-87
2023/11/15 06:31:36;;;;;;;0.20;0.20;;;;;;;17.78;100.00;75767.59;4901304;29;20115;-87
2023/11/15 06:34:04;;;;;;;0.20;0.20;;;;;;;17.61;100.00;75747.16;4901573;29;20028;-87
2023/11/15 06:36:34;;;;;;;0.20;0.20;;;;;;;17.61;100.00;75743.78;4901584;29;20404;-87
2023/11/15 06:39:00;;;;;;;0.20;0.20;;;;;;;17.39;100.00;75718.56;4901291;29;20092;-87
2023/11/15 06:41:26;;;;;;;0.20;0.20;;;;;;;17.55;100.00;75729.38;4894062;29;20454;-88
2023/11/15 06:43:51;;;;;;;0.20;0.20;;;;;;;17.47;100.00;75725.38;4899403;29;20029;-87
2023/11/15 06:46:19;;;;;;;0.20;0.20;;;;;;;17.52;100.00;75733.56;4899387;29;20088;-87
2023/11/15 06:48:46;;;;;;;0.20;0.20;;;;;;;17.21;100.00;75700.38;4882483;29;20025;-87
2023/11/15 06:51:12;;;;;;;0.20;0.20;;;;;;;17.35;100.00;75713.75;4882566;29;20028;-87
2023/11/15 06:53:38;;;;;;;0.20;0.20;;;;;;;17.15;100.00;75686.97;4882452;29;20167;-87
2023/11/15 06:56:07;;;;;;;0.20;0.20;;;;;;;17.52;100.00;75727.97;4882632;29;20029;-88
2023/11/15 06:58:32;;;;;;;0.20;0.20;;;;;;;17.59;100.00;75738.59;4882227;29;20041;-87
2023/11/15 07:00:58;;;;;;;0.20;0.20;;;;;;;17.90;100.00;75775.22;4882330;29;20478;-87
2023/11/15 07:03:23;;;;;;;0.20;0.20;;;;;;;17.95;100.00;75778.41;4899194;29;20017;-86
2023/11/15 07:05:49;;;;;;;0.20;0.20;;;;;;;17.86;100.00;75770.41;4882459;29;20024;-86
2023/11/15 07:08:16;;;;;;;0.20;0.20;;;;;;;17.75;100.00;75757.81;4882508;29;20024;-86
2023/11/15 07:10:42;;;;;;;0.20;0.20;;;;;;;17.76;100.00;75765.19;4883455;29;20051;-87
2023/11/15 07:13:08;;;;;;;0.20;0.20;;;;;;;18.25;100.00;75817.22;4900683;29;20032;-88
2023/11/15 07:15:38;;;;;;;0.20;0.20;;;;;;;18.69;100.00;75868.91;4884713;29;20028;-87
2023/11/15 07:18:04;;;;;;;0.20;0.20;;;;;;;18.49;100.00;75848.25;4881637;29;20035;-86
2023/11/15 07:20:29;;;;;;;0.20;0.20;;;;;;;18.67;100.00;75865.88;4881783;29;20021;-86
2023/11/15 07:22:54;;;;;;;0.20;0.20;;;;;;;18.91;100.00;75894.75;4881510;29;20027;-86
2023/11/15 07:25:20;;;;;;;0.20;0.20;;;;;;;19.34;100.00;75943.00;4878446;29;20484;-85
2023/11/15 07:27:45;;;;;;;0.20;0.20;;;;;;;19.73;100.00;75994.28;4881096;29;20519;-84
2023/11/15 07:30:12;;;;;;;0.20;0.20;;;;;;;20.06;100.00;76027.13;4898906;29;20036;-85
2023/11/15 07:32:38;;;;;;;0.20;0.20;;;;;;;20.78;100.00;76111.94;4878540;29;20033;-85
2023/11/15 07:35:04;;;;;;;0.20;0.20;;;;;;;20.61;100.00;76097.69;4897066;29;20033;-85
2023/11/15 07:37:30;;;;;;;0.20;0.20;;;;;;;20.11;100.00;76036.56;4895157;29;20024;-86
2023/11/15 07:39:55;;;;;;;0.20;0.20;;;;;;;19.77;100.00;75995.69;4881292;29;20397;-85
2023/11/15 07:42:21;;;;;;;0.20;0.20;;;;;;;19.35;100.00;75946.41;4912472;29;20031;-85
2023/11/15 07:44:49;;;;;;;0.20;0.20;;;;;;;19.34;100.00;75948.59;4900388;29;20059;-85
2023/11/15 07:47:17;;;;;;;0.20;0.20;;;;;;;18.97;100.00;75901.34;4900203;29;20044;-86
2023/11/15 07:49:42;;;;;;;0.20;0.20;;;;;;;18.75;100.00;75884.53;4900576;29;20028;-86
2023/11/15 07:52:07;;;;;;;0.20;0.20;;;;;;;18.87;100.00;75889.31;4900198;29;20515;-85
2023/11/15 07:54:33;;;;;;;0.20;0.20;;;;;;;18.82;100.00;75886.72;4900077;29;20110;-85
2023/11/15 07:56:58;;;;;;;0.20;0.20;;;;;;;18.91;100.00;75894.75;4900120;29;20115;-86
2023/11/15 07:59:26;;;;;;;0.20;0.20;;;;;;;18.78;100.00;75885.31;4898373;29;20465;-86
2023/11/15 08:01:52;;;;;;;0.20;0.20;;;;;;;18.67;100.00;75865.88;4881403;29;20391;-86
2023/11/15 08:04:18;;;;;;;0.20;0.20;;;;;;;18.60;100.00;75855.28;4894417;29;20039;-86
2023/11/15 08:06:44;;;;;;;0.20;0.20;;;;;;;18.47;100.00;75842.44;4862321;29;20049;-86
2023/11/15 08:09:23;;;;;;;0.20;0.20;;;;;;;18.55;100.00;75852.06;4864074;29;20044;-86
2023/11/15 08:11:51;;;;;;;0.20;0.20;;;;;;;18.68;100.00;75867.69;4872667;29;20025;-86
2023/11/15 08:14:17;;;;;;;0.20;0.20;;;;;;;18.93;100.00;75899.34;4881343;29;20120;-87
2023/11/15 08:16:43;;;;;;;0.20;0.20;;;;;;;18.72;100.00;75875.31;4898177;29;20140;-87
2023/11/15 08:19:08;;;;;;;0.20;0.20;;;;;;;18.80;100.00;75881.50;4881163;29;20107;-86
2023/11/15 08:21:34;;;;;;;0.20;0.20;;;;;;;18.95;100.00;75904.53;4881228;29;20032;-86
2023/11/15 08:23:59;;;;;;;0.20;0.20;;;;;;;18.94;100.00;75900.53;4855952;29;20120;-86
2023/11/15 08:26:24;;;;;;;0.20;0.20;;;;;;;18.90;100.00;75890.13;4856224;29;20025;-86
2023/11/15 08:28:50;;;;;;;0.20;0.20;;;;;;;18.99;100.00;75900.94;4843756;29;20034;-86
2023/11/15 08:31:16;;;;;;;0.20;0.20;;;;;;;19.13;100.00;75917.75;4860879;29;20607;-87
2023/11/15 08:33:44;;;;;;;0.20;0.20;;;;;;;18.98;100.00;75902.53;4862343;29;20405;-86
2023/11/15 08:36:10;;;;;;;0.20;0.20;;;;;;;18.99;100.00;75906.53;4879203;29;20097;-87
2023/11/15 08:38:36;;;;;;;0.20;0.20;;;;;;;19.25;100.00;75932.16;4862108;29;20047;-86
2023/11/15 08:41:01;;;;;;;0.20;0.20;;;;;;;19.36;100.00;75947.59;4866316;29;20119;-86
2023/11/15 08:43:26;;;;;;;0.20;0.20;;;;;;;19.29;100.00;75939.78;4880934;29;20033;-86
2023/11/15 08:45:52;;;;;;;0.20;0.20;;;;;;;20.24;100.00;76051.59;4880640;29;20116;-86
2023/11/15 08:48:17;;;;;;;0.20;0.20;;;;;;;19.45;100.00;75957.81;4864939;29;20033;-86
2023/11/15 08:50:44;;;;;;;0.20;0.20;;;;;;;19.46;100.00;75956.22;4862292;29;20025;-86
2023/11/15 08:53:14;;;;;;;0.20;0.20;;;;;;;19.21;100.00;75924.56;4872872;29;20053;-86
2023/11/15 08:55:45;;;;;;;0.20;0.20;;;;;;;18.93;100.00;75894.31;4862022;29;20176;-86
2023/11/15 08:58:13;;;;;;;0.20;0.20;;;;;;;18.64;100.00;75862.25;4871324;29;20048;-86
2023/11/15 09:00:39;;;;;;;0.20;0.20;;;;;;;18.60;100.00;75858.06;4880803;29;20024;-86
2023/11/15 09:03:08;;;;;;;0.20;0.20;;;;;;;18.55;100.00;75852.66;4881059;29;20024;-86
2023/11/15 09:05:34;;;;;;;0.20;0.20;;;;;;;18.60;100.00;75858.06;4880379;29;20020;-87
2023/11/15 09:08:00;;;;;;;0.20;0.20;;;;;;;18.48;100.00;75843.66;4879979;29;20029;-86
2023/11/15 09:10:27;;;;;;;0.20;0.20;;;;;;;18.55;100.00;75852.06;4879950;29;20048;-86
2023/11/15 09:12:54;;;;;;;0.20;0.20;;;;;;;18.58;100.00;75855.66;4898467;29;20075;-86
2023/11/15 09:15:22;;;;;;;0.20;0.20;;;;;;;19.21;100.00;75930.16;4887917;29;20115;-86
2023/11/15 09:17:48;;;;;;;0.20;0.20;;;;;;;19.39;100.00;75951.22;4864705;29;20405;-86
2023/11/15 09:20:19;;;;;;;0.20;0.20;;;;;;;19.84;100.00;76004.69;4881928;29;20033;-87
2023/11/15 09:22:53;;;;;;;0.20;0.20;;;;;;;19.96;100.00;76015.09;4897083;29;20032;-86
2023/11/15 09:25:23;;;;;;;0.20;0.20;;;;;;;19.44;100.00;75957.22;4881387;29;20464;-86
2023/11/15 09:27:54;;;;;;;0.20;0.20;;;;;;;20.24;100.00;76048.16;4883130;29;20029;-85
2023/11/15 09:30:21;;;;;;;0.20;0.20;;;;;;;20.53;100.00;76088.09;4882814;29;20024;-86
2023/11/15 09:32:49;;;;;;;0.20;0.20;;;;;;;21.50;100.00;76196.75;4882707;29;20400;-86
2023/11/15 09:35:21;;;;;;;0.20;0.20;;;;;;;21.53;100.00;76206.00;4881444;29;20485;-86
2023/11/15 09:37:47;;;;;;;0.20;0.20;;;;;;;21.90;100.00;76241.47;4878418;29;20485;-86
2023/11/15 09:40:13;;;;;;;0.20;0.20;;;;;;;22.78;99.00;76351.22;4879803;29;20087;-85
2023/11/15 09:42:44;;;;;;;0.20;0.20;;;;;;;21.50;100.00;76202.38;4896788;29;20548;-86
2023/11/15 09:45:23;;;;;;;0.20;0.20;;;;;;;21.29;100.00;76172.66;4898289;29;20400;-86
2023/11/15 09:47:50;;;;;;;0.20;0.20;;;;;;;21.42;100.00;76187.72;4898687;29;20385;-87
2023/11/15 09:50:23;;;;;;;0.20;0.20;;;;;;;21.27;100.00;76164.03;4898427;29;20075;-86
2023/11/15 09:52:58;;;;;;;0.20;0.20;;;;;;;21.46;100.00;76192.53;4915456;29;20024;-86
2023/11/15 09:55:26;;;;;;;0.20;0.20;;;;;;;21.31;100.00;76174.50;4898680;29;20028;-86
2023/11/15 09:57:52;;;;;;;0.20;0.20;;;;;;;21.48;100.00;76194.34;4897886;29;20051;-85
2023/11/15 10:00:20;;;;;;;0.20;0.20;;;;;;;21.44;100.00;76190.72;4898227;29;20028;-86
2023/11/15 10:02:53;;;;;;;0.20;0.20;;;;;;;21.22;100.00;76163.66;4898191;29;20028;-86
2023/11/15 10:05:30;;;;;;;0.20;0.20;;;;;;;21.01;100.00;76142.41;4915154;29;20029;-86
2023/11/15 10:08:10;;;;;;;0.20;0.20;;;;;;;21.96;95.68;76254.91;4898014;29;20147;-86
2023/11/15 10:10:40;;;;;;;0.20;0.20;;;;;;;22.18;93.58;76280.81;4897303;29;20119;-86
2023/11/15 10:13:14;;;;;;;0.20;0.20;;;;;;;21.78;96.10;76235.47;4878047;29;20080;-87
2023/11/15 10:15:43;;;;;;;0.20;0.20;;;;;;;21.59;96.90;76207.59;4881124;29;20033;-86
2023/11/15 10:18:14;;;;;;;0.20;0.20;;;;;;;21.34;97.97;76178.69;4879241;29;20397;-86
2023/11/15 10:20:41;;;;;;;0.20;0.20;;;;;;;20.96;100.00;76135.78;4866760;29;20032;-87
2023/11/15 10:23:10;;;;;;;0.20;0.20;;;;;;;20.95;100.00;76131.78;4871292;29;20032;-86
2023/11/15 10:25:52;;;;;;;0.20;0.20;;;;;;;20.74;100.00;76110.53;4879376;29;20084;-86
2023/11/15 10:28:21;;;;;;;0.20;0.20;;;;;;;20.95;100.00;76131.78;4879236;29;20047;-87
2023/11/15 10:31:13;;;;;;;0.20;0.20;;;;;;;20.99;100.00;76137.19;4879255;29;20541;-86
2023/11/15 10:33:43;;;;;;;0.20;0.20;;;;;;;21.07;100.00;76149.00;4880255;29;20040;-86
2023/11/15 10:36:21;;;;;;;0.20;0.20;;;;;;;21.14;100.00;76163.03;4884223;29;20115;-86
2023/11/15 10:38:51;;;;;;;0.20;0.20;;;;;;;21.30;100.00;76179.50;4879307;29;20033;-86
2023/11/15 10:41:21;;;;;;;0.20;0.20;;;;;;;21.19;100.00;76166.25;4885368;29;20439;-86
2023/11/15 10:43:51;;;;;;;0.20;0.20;;;;;;;21.23;100.00;76168.25;4898704;29;20531;-86
2023/11/15 10:46:29;;;;;;;0.20;0.20;;;;;;;21.59;98.29;76210.41;4914486;29;20043;-86
2023/11/15 10:48:58;;;;;;;0.20;0.20;;;;;;;21.70;95.62;76220.81;4897675;29;20035;-87
2023/11/15 10:51:35;;;;;;;0.20;0.20;;;;;;;22.39;92.67;76297.03;4897758;29;20123;-86
2023/11/15 10:54:02;;;;;;;0.20;0.20;;;;;;;21.93;91.90;76248.47;4913233;29;20625;-86
